sensor_id;sensor_type;location;lat;lon;timestamp;P1;durP1;ratioP1;P2;durP2;ratioP2
64887;SDS011;51386;53.082;8.816;2024-03-06T00:00:03;12.67;;;8.40;;
64887;SDS011;51386;53.082;8.816;2024-03-06T00:02:35;12.07;;;8.13;;
64887;SDS011;51386;53.082;8.816;2024-03-06T00:05:03;12.93;;;8.27;;
64887;SDS011;51386;53.082;8.816;2024-03-06T00:07:35;10.77;;;8.00;;
64887;SDS011;51386;53.082;8.816;2024-03-06T00:10:04;10.60;;;8.60;;
64887;SDS011;51386;53.082;8.816;2024-03-06T00:12:33;11.37;;;8.30;;
64887;SDS011;51386;53.082;8.816;2024-03-06T00:15:01;11.87;;;8.23;;
64887;SDS011;51386;53.082;8.816;2024-03-06T00:17:30;11.77;;;8.10;;
64887;SDS011;51386;53.082;8.816;2024-03-06T00:19:59;11.27;;;8.00;;
64887;SDS011;51386;53.082;8.816;2024-03-06T00:22:27;11.47;;;8.17;;
64887;SDS011;51386;53.082;8.816;2024-03-06T00:24:55;9.73;;;8.73;;
64887;SDS011;51386;53.082;8.816;2024-03-06T00:27:24;12.77;;;9.23;;
64887;SDS011;51386;53.082;8.816;2024-03-06T00:29:52;12.17;;;8.63;;
64887;SDS011;51386;53.082;8.816;2024-03-06T00:32:21;11.33;;;8.67;;
64887;SDS011;51386;53.082;8.816;2024-03-06T00:34:51;10.97;;;7.93;;
64887;SDS011;51386;53.082;8.816;2024-03-06T00:37:19;10.87;;;8.83;;
64887;SDS011;51386;53.082;8.816;2024-03-06T00:39:47;12.63;;;8.50;;
64887;SDS011;51386;53.082;8.816;2024-03-06T00:42:16;9.43;;;8.43;;
64887;SDS011;51386;53.082;8.816;2024-03-06T00:44:44;10.50;;;8.20;;
64887;SDS011;51386;53.082;8.816;2024-03-06T00:47:13;13.50;;;8.20;;
64887;SDS011;51386;53.082;8.816;2024-03-06T00:49:42;13.47;;;8.33;;
64887;SDS011;51386;53.082;8.816;2024-03-06T00:52:10;11.57;;;8.47;;
64887;SDS011;51386;53.082;8.816;2024-03-06T00:54:38;10.90;;;8.80;;
64887;SDS011;51386;53.082;8.816;2024-03-06T00:57:07;11.77;;;9.00;;
64887;SDS011;51386;53.082;8.816;2024-03-06T00:59:35;9.17;;;8.17;;
64887;SDS011;51386;53.082;8.816;2024-03-06T01:02:03;13.27;;;8.73;;
64887;SDS011;51386;53.082;8.816;2024-03-06T01:04:32;13.17;;;8.87;;
64887;SDS011;51386;53.082;8.816;2024-03-06T01:07:00;14.77;;;8.60;;
64887;SDS011;51386;53.082;8.816;2024-03-06T01:09:29;11.20;;;9.03;;
64887;SDS011;51386;53.082;8.816;2024-03-06T01:11:57;13.03;;;7.97;;
64887;SDS011;51386;53.082;8.816;2024-03-06T01:14:25;9.87;;;7.67;;
64887;SDS011;51386;53.082;8.816;2024-03-06T01:16:54;12.07;;;8.60;;
64887;SDS011;51386;53.082;8.816;2024-03-06T01:19:23;13.00;;;8.83;;
64887;SDS011;51386;53.082;8.816;2024-03-06T01:21:51;11.17;;;9.20;;
64887;SDS011;51386;53.082;8.816;2024-03-06T01:24:20;10.80;;;8.70;;
64887;SDS011;51386;53.082;8.816;2024-03-06T01:26:48;11.90;;;8.63;;
64887;SDS011;51386;53.082;8.816;2024-03-06T01:29:17;11.87;;;8.60;;
64887;SDS011;51386;53.082;8.816;2024-03-06T01:31:45;11.70;;;8.97;;
64887;SDS011;51386;53.082;8.816;2024-03-06T01:34:14;12.17;;;8.70;;
64887;SDS011;51386;53.082;8.816;2024-03-06T01:36:42;12.17;;;9.47;;
64887;SDS011;51386;53.082;8.816;2024-03-06T01:39:11;11.47;;;9.73;;
64887;SDS011;51386;53.082;8.816;2024-03-06T01:41:46;14.50;;;9.40;;
64887;SDS011;51386;53.082;8.816;2024-03-06T01:44:17;13.43;;;8.93;;
64887;SDS011;51386;53.082;8.816;2024-03-06T01:46:46;12.60;;;9.10;;
64887;SDS011;51386;53.082;8.816;2024-03-06T01:49:15;12.80;;;9.43;;
64887;SDS011;51386;53.082;8.816;2024-03-06T01:51:57;10.20;;;8.13;;
64887;SDS011;51386;53.082;8.816;2024-03-06T01:54:28;17.10;;;9.77;;
64887;SDS011;51386;53.082;8.816;2024-03-06T01:56:58;13.13;;;9.97;;
64887;SDS011;51386;53.082;8.816;2024-03-06T01:59:30;13.50;;;8.33;;
64887;SDS011;51386;53.082;8.816;2024-03-06T02:02:03;10.70;;;8.43;;
64887;SDS011;51386;53.082;8.816;2024-03-06T02:04:34;11.13;;;8.67;;
64887;SDS011;51386;53.082;8.816;2024-03-06T02:07:03;11.07;;;8.80;;
64887;SDS011;51386;53.082;8.816;2024-03-06T02:09:38;11.93;;;8.70;;
64887;SDS011;51386;53.082;8.816;2024-03-06T02:12:07;16.40;;;9.20;;
64887;SDS011;51386;53.082;8.816;2024-03-06T02:14:36;10.80;;;8.50;;
64887;SDS011;51386;53.082;8.816;2024-03-06T02:17:05;14.67;;;10.03;;
64887;SDS011;51386;53.082;8.816;2024-03-06T02:19:37;10.90;;;8.77;;
64887;SDS011;51386;53.082;8.816;2024-03-06T02:22:08;11.83;;;9.10;;
64887;SDS011;51386;53.082;8.816;2024-03-06T02:24:44;13.37;;;8.67;;
64887;SDS011;51386;53.082;8.816;2024-03-06T02:27:15;13.57;;;8.87;;
64887;SDS011;51386;53.082;8.816;2024-03-06T02:29:44;13.63;;;9.03;;
64887;SDS011;51386;53.082;8.816;2024-03-06T02:32:13;13.07;;;9.70;;
64887;SDS011;51386;53.082;8.816;2024-03-06T02:34:42;13.00;;;8.50;;
64887;SDS011;51386;53.082;8.816;2024-03-06T02:37:10;14.43;;;8.87;;
64887;SDS011;51386;53.082;8.816;2024-03-06T02:39:39;13.47;;;9.37;;
64887;SDS011;51386;53.082;8.816;2024-03-06T02:42:07;12.17;;;9.03;;
64887;SDS011;51386;53.082;8.816;2024-03-06T02:44:35;11.53;;;8.30;;
64887;SDS011;51386;53.082;8.816;2024-03-06T02:47:04;12.17;;;9.00;;
64887;SDS011;51386;53.082;8.816;2024-03-06T02:49:32;11.30;;;8.50;;
64887;SDS011;51386;53.082;8.816;2024-03-06T02:52:01;13.53;;;9.17;;
64887;SDS011;51386;53.082;8.816;2024-03-06T02:54:30;13.03;;;10.07;;
64887;SDS011;51386;53.082;8.816;2024-03-06T02:56:58;11.83;;;9.27;;
64887;SDS011;51386;53.082;8.816;2024-03-06T02:59:26;11.63;;;9.10;;
64887;SDS011;51386;53.082;8.816;2024-03-06T03:01:55;11.03;;;9.23;;
64887;SDS011;51386;53.082;8.816;2024-03-06T03:04:23;11.07;;;8.13;;
64887;SDS011;51386;53.082;8.816;2024-03-06T03:06:52;11.93;;;8.87;;
64887;SDS011;51386;53.082;8.816;2024-03-06T03:09:21;15.13;;;9.53;;
64887;SDS011;51386;53.082;8.816;2024-03-06T03:11:49;12.80;;;8.37;;
64887;SDS011;51386;53.082;8.816;2024-03-06T03:14:17;22.10;;;13.20;;
64887;SDS011;51386;53.082;8.816;2024-03-06T03:16:46;15.57;;;9.77;;
64887;SDS011;51386;53.082;8.816;2024-03-06T03:19:14;11.80;;;9.20;;
64887;SDS011;51386;53.082;8.816;2024-03-06T03:21:44;11.23;;;9.07;;
64887;SDS011;51386;53.082;8.816;2024-03-06T03:24:12;13.30;;;9.07;;
64887;SDS011;51386;53.082;8.816;2024-03-06T03:26:40;11.43;;;8.83;;
64887;SDS011;51386;53.082;8.816;2024-03-06T03:29:09;11.37;;;8.43;;
64887;SDS011;51386;53.082;8.816;2024-03-06T03:31:38;13.33;;;9.70;;
64887;SDS011;51386;53.082;8.816;2024-03-06T03:34:06;13.53;;;9.77;;
64887;SDS011;51386;53.082;8.816;2024-03-06T03:36:40;12.83;;;9.20;;
64887;SDS011;51386;53.082;8.816;2024-03-06T03:39:10;12.17;;;9.10;;
64887;SDS011;51386;53.082;8.816;2024-03-06T03:41:45;13.97;;;9.53;;
64887;SDS011;51386;53.082;8.816;2024-03-06T03:44:15;15.07;;;9.87;;
64887;SDS011;51386;53.082;8.816;2024-03-06T03:46:46;13.13;;;9.80;;
64887;SDS011;51386;53.082;8.816;2024-03-06T03:49:15;14.50;;;9.17;;
64887;SDS011;51386;53.082;8.816;2024-03-06T03:51:43;11.30;;;8.30;;
64887;SDS011;51386;53.082;8.816;2024-03-06T03:54:13;15.60;;;10.27;;
64887;SDS011;51386;53.082;8.816;2024-03-06T03:56:41;12.37;;;9.53;;
64887;SDS011;51386;53.082;8.816;2024-03-06T03:59:10;12.07;;;9.27;;
64887;SDS011;51386;53.082;8.816;2024-03-06T04:01:38;10.73;;;9.30;;
64887;SDS011;51386;53.082;8.816;2024-03-06T04:04:07;12.67;;;9.37;;
64887;SDS011;51386;53.082;8.816;2024-03-06T04:06:36;12.80;;;9.70;;
64887;SDS011;51386;53.082;8.816;2024-03-06T04:09:04;14.10;;;10.30;;
64887;SDS011;51386;53.082;8.816;2024-03-06T04:11:32;16.40;;;9.77;;
64887;SDS011;51386;53.082;8.816;2024-03-06T04:14:02;12.73;;;8.97;;
64887;SDS011;51386;53.082;8.816;2024-03-06T04:16:36;13.13;;;9.77;;
64887;SDS011;51386;53.082;8.816;2024-03-06T04:19:05;12.87;;;8.93;;
64887;SDS011;51386;53.082;8.816;2024-03-06T04:21:34;15.10;;;9.87;;
64887;SDS011;51386;53.082;8.816;2024-03-06T04:24:02;15.80;;;9.83;;
64887;SDS011;51386;53.082;8.816;2024-03-06T04:26:31;12.77;;;9.70;;
64887;SDS011;51386;53.082;8.816;2024-03-06T04:28:59;11.43;;;8.97;;
64887;SDS011;51386;53.082;8.816;2024-03-06T04:31:28;14.67;;;9.30;;
64887;SDS011;51386;53.082;8.816;2024-03-06T04:33:56;16.27;;;9.57;;
64887;SDS011;51386;53.082;8.816;2024-03-06T04:36:25;13.87;;;9.53;;
64887;SDS011;51386;53.082;8.816;2024-03-06T04:38:53;13.87;;;9.47;;
64887;SDS011;51386;53.082;8.816;2024-03-06T04:41:21;13.27;;;8.70;;
64887;SDS011;51386;53.082;8.816;2024-03-06T04:43:51;13.97;;;9.10;;
64887;SDS011;51386;53.082;8.816;2024-03-06T04:46:20;13.87;;;9.70;;
64887;SDS011;51386;53.082;8.816;2024-03-06T04:48:48;15.17;;;9.70;;
64887;SDS011;51386;53.082;8.816;2024-03-06T04:51:17;15.73;;;9.20;;
64887;SDS011;51386;53.082;8.816;2024-03-06T04:53:48;13.10;;;9.40;;
64887;SDS011;51386;53.082;8.816;2024-03-06T04:56:16;11.90;;;8.63;;
64887;SDS011;51386;53.082;8.816;2024-03-06T04:58:46;12.07;;;9.23;;
64887;SDS011;51386;53.082;8.816;2024-03-06T05:01:15;12.67;;;9.70;;
64887;SDS011;51386;53.082;8.816;2024-03-06T05:03:43;13.33;;;10.03;;
64887;SDS011;51386;53.082;8.816;2024-03-06T05:06:24;14.00;;;9.93;;
64887;SDS011;51386;53.082;8.816;2024-03-06T05:09:06;12.50;;;9.07;;
64887;SDS011;51386;53.082;8.816;2024-03-06T05:11:51;11.73;;;9.13;;
64887;SDS011;51386;53.082;8.816;2024-03-06T05:14:32;14.20;;;9.87;;
64887;SDS011;51386;53.082;8.816;2024-03-06T05:17:13;13.43;;;9.73;;
64887;SDS011;51386;53.082;8.816;2024-03-06T05:19:54;12.17;;;10.17;;
64887;SDS011;51386;53.082;8.816;2024-03-06T05:22:35;15.33;;;9.97;;
64887;SDS011;51386;53.082;8.816;2024-03-06T05:25:16;13.97;;;9.30;;
64887;SDS011;51386;53.082;8.816;2024-03-06T05:27:57;12.93;;;9.40;;
64887;SDS011;51386;53.082;8.816;2024-03-06T05:30:38;14.43;;;9.43;;
64887;SDS011;51386;53.082;8.816;2024-03-06T05:33:19;12.83;;;9.40;;
64887;SDS011;51386;53.082;8.816;2024-03-06T05:36:02;15.83;;;9.93;;
64887;SDS011;51386;53.082;8.816;2024-03-06T05:38:46;13.40;;;10.13;;
64887;SDS011;51386;53.082;8.816;2024-03-06T05:41:29;16.13;;;10.27;;
64887;SDS011;51386;53.082;8.816;2024-03-06T05:44:10;16.23;;;9.70;;
64887;SDS011;51386;53.082;8.816;2024-03-06T05:46:52;16.43;;;9.70;;
64887;SDS011;51386;53.082;8.816;2024-03-06T05:49:33;13.63;;;9.63;;
64887;SDS011;51386;53.082;8.816;2024-03-06T05:52:14;15.10;;;10.67;;
64887;SDS011;51386;53.082;8.816;2024-03-06T05:54:55;14.13;;;9.23;;
64887;SDS011;51386;53.082;8.816;2024-03-06T05:57:36;17.73;;;9.47;;
64887;SDS011;51386;53.082;8.816;2024-03-06T06:00:17;13.80;;;9.87;;
64887;SDS011;51386;53.082;8.816;2024-03-06T06:02:49;12.53;;;9.77;;
64887;SDS011;51386;53.082;8.816;2024-03-06T06:05:17;14.37;;;10.20;;
64887;SDS011;51386;53.082;8.816;2024-03-06T06:07:50;13.40;;;9.43;;
64887;SDS011;51386;53.082;8.816;2024-03-06T06:10:18;15.10;;;10.27;;
64887;SDS011;51386;53.082;8.816;2024-03-06T06:12:48;13.73;;;9.30;;
64887;SDS011;51386;53.082;8.816;2024-03-06T06:15:17;14.50;;;9.63;;
64887;SDS011;51386;53.082;8.816;2024-03-06T06:17:45;13.73;;;10.07;;
64887;SDS011;51386;53.082;8.816;2024-03-06T06:20:14;15.07;;;9.60;;
64887;SDS011;51386;53.082;8.816;2024-03-06T06:22:43;12.03;;;9.50;;
64887;SDS011;51386;53.082;8.816;2024-03-06T06:25:12;14.80;;;9.93;;
64887;SDS011;51386;53.082;8.816;2024-03-06T06:27:41;13.13;;;9.97;;
64887;SDS011;51386;53.082;8.816;2024-03-06T06:30:09;12.23;;;9.13;;
64887;SDS011;51386;53.082;8.816;2024-03-06T06:32:41;13.00;;;10.23;;
64887;SDS011;51386;53.082;8.816;2024-03-06T06:35:11;15.10;;;10.00;;
64887;SDS011;51386;53.082;8.816;2024-03-06T06:37:41;14.30;;;10.70;;
64887;SDS011;51386;53.082;8.816;2024-03-06T06:40:09;15.57;;;10.00;;
64887;SDS011;51386;53.082;8.816;2024-03-06T06:42:47;14.83;;;10.00;;
64887;SDS011;51386;53.082;8.816;2024-03-06T06:45:17;13.53;;;9.87;;
64887;SDS011;51386;53.082;8.816;2024-03-06T06:47:52;15.60;;;10.13;;
64887;SDS011;51386;53.082;8.816;2024-03-06T06:50:21;14.80;;;9.90;;
64887;SDS011;51386;53.082;8.816;2024-03-06T06:52:51;14.40;;;10.47;;
64887;SDS011;51386;53.082;8.816;2024-03-06T06:55:20;14.27;;;10.17;;
64887;SDS011;51386;53.082;8.816;2024-03-06T06:57:50;15.67;;;10.90;;
64887;SDS011;51386;53.082;8.816;2024-03-06T07:00:19;15.27;;;10.70;;
64887;SDS011;51386;53.082;8.816;2024-03-06T07:02:50;15.63;;;10.53;;
64887;SDS011;51386;53.082;8.816;2024-03-06T07:05:18;14.13;;;11.00;;
64887;SDS011;51386;53.082;8.816;2024-03-06T07:07:47;14.10;;;10.87;;
64887;SDS011;51386;53.082;8.816;2024-03-06T07:10:20;15.33;;;10.60;;
64887;SDS011;51386;53.082;8.816;2024-03-06T07:12:49;12.07;;;9.90;;
64887;SDS011;51386;53.082;8.816;2024-03-06T07:15:18;18.83;;;10.83;;
64887;SDS011;51386;53.082;8.816;2024-03-06T07:17:47;17.43;;;12.97;;
64887;SDS011;51386;53.082;8.816;2024-03-06T07:20:18;13.10;;;10.20;;
64887;SDS011;51386;53.082;8.816;2024-03-06T07:22:47;13.07;;;10.30;;
64887;SDS011;51386;53.082;8.816;2024-03-06T07:25:15;13.50;;;9.77;;
64887;SDS011;51386;53.082;8.816;2024-03-06T07:27:44;13.63;;;9.57;;
64887;SDS011;51386;53.082;8.816;2024-03-06T07:30:15;15.57;;;10.37;;
64887;SDS011;51386;53.082;8.816;2024-03-06T07:32:45;14.00;;;9.03;;
64887;SDS011;51386;53.082;8.816;2024-03-06T07:35:14;14.63;;;10.00;;
64887;SDS011;51386;53.082;8.816;2024-03-06T07:37:42;17.33;;;14.10;;
64887;SDS011;51386;53.082;8.816;2024-03-06T07:40:31;19.10;;;13.13;;
64887;SDS011;51386;53.082;8.816;2024-03-06T07:43:00;14.00;;;10.17;;
64887;SDS011;51386;53.082;8.816;2024-03-06T07:45:28;14.20;;;10.10;;
64887;SDS011;51386;53.082;8.816;2024-03-06T07:47:57;13.97;;;10.63;;
64887;SDS011;51386;53.082;8.816;2024-03-06T07:50:25;13.07;;;10.50;;
64887;SDS011;51386;53.082;8.816;2024-03-06T07:52:54;14.60;;;10.63;;
64887;SDS011;51386;53.082;8.816;2024-03-06T07:55:23;14.70;;;10.37;;
64887;SDS011;51386;53.082;8.816;2024-03-06T07:57:51;18.00;;;11.67;;
64887;SDS011;51386;53.082;8.816;2024-03-06T08:00:20;14.50;;;10.37;;
64887;SDS011;51386;53.082;8.816;2024-03-06T08:02:49;15.83;;;10.27;;
64887;SDS011;51386;53.082;8.816;2024-03-06T08:05:18;16.77;;;11.73;;
64887;SDS011;51386;53.082;8.816;2024-03-06T08:07:49;14.40;;;10.37;;
64887;SDS011;51386;53.082;8.816;2024-03-06T08:10:17;14.13;;;9.67;;
64887;SDS011;51386;53.082;8.816;2024-03-06T08:12:46;19.30;;;11.77;;
64887;SDS011;51386;53.082;8.816;2024-03-06T08:15:17;21.33;;;15.63;;
64887;SDS011;51386;53.082;8.816;2024-03-06T08:17:45;15.53;;;12.00;;
64887;SDS011;51386;53.082;8.816;2024-03-06T08:20:17;20.00;;;11.57;;
64887;SDS011;51386;53.082;8.816;2024-03-06T08:22:45;17.43;;;11.17;;
64887;SDS011;51386;53.082;8.816;2024-03-06T08:25:14;13.63;;;10.03;;
64887;SDS011;51386;53.082;8.816;2024-03-06T08:27:45;13.90;;;10.67;;
64887;SDS011;51386;53.082;8.816;2024-03-06T08:30:20;17.17;;;10.53;;
64887;SDS011;51386;53.082;8.816;2024-03-06T08:32:57;15.67;;;10.70;;
64887;SDS011;51386;53.082;8.816;2024-03-06T08:35:35;13.97;;;10.40;;
64887;SDS011;51386;53.082;8.816;2024-03-06T08:38:07;27.93;;;18.10;;
64887;SDS011;51386;53.082;8.816;2024-03-06T08:40:36;14.07;;;10.93;;
64887;SDS011;51386;53.082;8.816;2024-03-06T08:43:22;16.80;;;11.73;;
64887;SDS011;51386;53.082;8.816;2024-03-06T08:45:50;14.97;;;10.23;;
64887;SDS011;51386;53.082;8.816;2024-03-06T08:48:20;16.57;;;10.93;;
64887;SDS011;51386;53.082;8.816;2024-03-06T08:50:49;15.73;;;10.90;;
64887;SDS011;51386;53.082;8.816;2024-03-06T08:53:18;19.13;;;11.17;;
64887;SDS011;51386;53.082;8.816;2024-03-06T08:55:47;15.67;;;11.23;;
64887;SDS011;51386;53.082;8.816;2024-03-06T08:58:17;21.93;;;14.73;;
64887;SDS011;51386;53.082;8.816;2024-03-06T09:00:47;15.87;;;10.90;;
64887;SDS011;51386;53.082;8.816;2024-03-06T09:03:16;15.90;;;11.40;;
64887;SDS011;51386;53.082;8.816;2024-03-06T09:06:06;27.33;;;17.30;;
64887;SDS011;51386;53.082;8.816;2024-03-06T09:08:34;20.67;;;12.80;;
64887;SDS011;51386;53.082;8.816;2024-03-06T09:11:09;17.50;;;12.23;;
64887;SDS011;51386;53.082;8.816;2024-03-06T09:13:38;12.30;;;10.90;;
64887;SDS011;51386;53.082;8.816;2024-03-06T09:16:31;20.63;;;14.60;;
64887;SDS011;51386;53.082;8.816;2024-03-06T09:19:04;15.53;;;11.83;;
64887;SDS011;51386;53.082;8.816;2024-03-06T09:21:33;16.50;;;11.40;;
64887;SDS011;51386;53.082;8.816;2024-03-06T09:24:05;15.77;;;10.80;;
64887;SDS011;51386;53.082;8.816;2024-03-06T09:26:36;15.23;;;10.17;;
64887;SDS011;51386;53.082;8.816;2024-03-06T09:29:05;15.90;;;10.30;;
64887;SDS011;51386;53.082;8.816;2024-03-06T09:31:33;15.13;;;10.57;;
64887;SDS011;51386;53.082;8.816;2024-03-06T09:36:49;15.40;;;11.27;;
64887;SDS011;51386;53.082;8.816;2024-03-06T09:39:19;12.80;;;10.33;;
64887;SDS011;51386;53.082;8.816;2024-03-06T09:42:21;14.87;;;11.87;;
64887;SDS011;51386;53.082;8.816;2024-03-06T09:44:50;13.93;;;11.20;;
64887;SDS011;51386;53.082;8.816;2024-03-06T09:47:21;12.73;;;10.43;;
64887;SDS011;51386;53.082;8.816;2024-03-06T09:49:52;13.27;;;10.83;;
64887;SDS011;51386;53.082;8.816;2024-03-06T09:52:24;12.97;;;9.67;;
64887;SDS011;51386;53.082;8.816;2024-03-06T09:55:14;15.07;;;11.13;;
64887;SDS011;51386;53.082;8.816;2024-03-06T09:57:44;17.87;;;11.60;;
64887;SDS011;51386;53.082;8.816;2024-03-06T10:00:16;15.53;;;10.80;;
64887;SDS011;51386;53.082;8.816;2024-03-06T10:02:57;15.03;;;10.90;;
64887;SDS011;51386;53.082;8.816;2024-03-06T10:05:27;15.77;;;10.97;;
64887;SDS011;51386;53.082;8.816;2024-03-06T10:07:57;16.10;;;11.20;;
64887;SDS011;51386;53.082;8.816;2024-03-06T10:10:27;13.40;;;11.20;;
64887;SDS011;51386;53.082;8.816;2024-03-06T10:12:55;15.87;;;12.43;;
64887;SDS011;51386;53.082;8.816;2024-03-06T10:15:29;17.97;;;12.20;;
64887;SDS011;51386;53.082;8.816;2024-03-06T10:18:10;14.23;;;11.27;;
64887;SDS011;51386;53.082;8.816;2024-03-06T10:20:44;15.23;;;11.07;;
64887;SDS011;51386;53.082;8.816;2024-03-06T10:23:12;18.03;;;13.83;;
64887;SDS011;51386;53.082;8.816;2024-03-06T10:25:43;18.13;;;12.13;;
64887;SDS011;51386;53.082;8.816;2024-03-06T10:28:14;14.83;;;10.80;;
64887;SDS011;51386;53.082;8.816;2024-03-06T10:30:42;14.57;;;11.33;;
64887;SDS011;51386;53.082;8.816;2024-03-06T10:33:12;17.37;;;11.80;;
64887;SDS011;51386;53.082;8.816;2024-03-06T10:35:43;18.00;;;12.40;;
64887;SDS011;51386;53.082;8.816;2024-03-06T10:38:15;16.03;;;12.67;;
64887;SDS011;51386;53.082;8.816;2024-03-06T10:40:47;16.20;;;11.93;;
64887;SDS011;51386;53.082;8.816;2024-03-06T10:43:19;18.20;;;12.53;;
64887;SDS011;51386;53.082;8.816;2024-03-06T10:45:51;15.83;;;12.10;;
64887;SDS011;51386;53.082;8.816;2024-03-06T10:48:32;15.33;;;11.40;;
64887;SDS011;51386;53.082;8.816;2024-03-06T10:51:02;16.27;;;12.30;;
64887;SDS011;51386;53.082;8.816;2024-03-06T10:53:34;16.10;;;12.67;;
64887;SDS011;51386;53.082;8.816;2024-03-06T10:56:05;16.13;;;12.90;;
64887;SDS011;51386;53.082;8.816;2024-03-06T10:58:37;22.63;;;14.93;;
64887;SDS011;51386;53.082;8.816;2024-03-06T11:01:09;17.80;;;14.23;;
64887;SDS011;51386;53.082;8.816;2024-03-06T11:03:37;17.73;;;13.87;;
64887;SDS011;51386;53.082;8.816;2024-03-06T11:06:06;17.27;;;13.73;;
64887;SDS011;51386;53.082;8.816;2024-03-06T11:08:35;20.33;;;14.70;;
64887;SDS011;51386;53.082;8.816;2024-03-06T11:11:19;21.00;;;13.73;;
64887;SDS011;51386;53.082;8.816;2024-03-06T11:13:55;17.43;;;13.47;;
64887;SDS011;51386;53.082;8.816;2024-03-06T11:16:31;16.50;;;13.43;;
64887;SDS011;51386;53.082;8.816;2024-03-06T11:19:26;20.23;;;13.83;;
64887;SDS011;51386;53.082;8.816;2024-03-06T11:21:55;20.00;;;14.17;;
64887;SDS011;51386;53.082;8.816;2024-03-06T11:24:31;20.90;;;14.33;;
64887;SDS011;51386;53.082;8.816;2024-03-06T11:27:02;17.90;;;13.67;;
64887;SDS011;51386;53.082;8.816;2024-03-06T11:33:00;20.07;;;14.07;;
64887;SDS011;51386;53.082;8.816;2024-03-06T11:35:29;20.73;;;13.93;;
64887;SDS011;51386;53.082;8.816;2024-03-06T11:37:59;19.33;;;14.63;;
64887;SDS011;51386;53.082;8.816;2024-03-06T11:40:27;19.23;;;13.07;;
64887;SDS011;51386;53.082;8.816;2024-03-06T11:42:56;18.97;;;13.97;;
64887;SDS011;51386;53.082;8.816;2024-03-06T11:46:07;19.83;;;14.67;;
64887;SDS011;51386;53.082;8.816;2024-03-06T11:48:39;16.93;;;13.47;;
64887;SDS011;51386;53.082;8.816;2024-03-06T11:51:08;18.07;;;13.60;;
64887;SDS011;51386;53.082;8.816;2024-03-06T11:53:37;15.93;;;12.93;;
64887;SDS011;51386;53.082;8.816;2024-03-06T11:56:07;20.80;;;12.80;;
64887;SDS011;51386;53.082;8.816;2024-03-06T11:58:36;15.57;;;12.90;;
64887;SDS011;51386;53.082;8.816;2024-03-06T12:01:05;15.03;;;12.63;;
64887;SDS011;51386;53.082;8.816;2024-03-06T12:03:34;17.80;;;13.03;;
64887;SDS011;51386;53.082;8.816;2024-03-06T12:06:02;19.87;;;12.67;;
64887;SDS011;51386;53.082;8.816;2024-03-06T12:08:31;14.70;;;11.80;;
64887;SDS011;51386;53.082;8.816;2024-03-06T12:11:04;15.13;;;12.13;;
64887;SDS011;51386;53.082;8.816;2024-03-06T12:13:33;17.13;;;12.07;;
64887;SDS011;51386;53.082;8.816;2024-03-06T12:16:06;14.77;;;12.07;;
64887;SDS011;51386;53.082;8.816;2024-03-06T12:18:35;17.73;;;12.47;;
64887;SDS011;51386;53.082;8.816;2024-03-06T12:21:04;14.63;;;11.50;;
64887;SDS011;51386;53.082;8.816;2024-03-06T12:23:33;14.33;;;11.20;;
64887;SDS011;51386;53.082;8.816;2024-03-06T12:26:02;12.83;;;10.27;;
64887;SDS011;51386;53.082;8.816;2024-03-06T12:28:38;18.23;;;11.57;;
64887;SDS011;51386;53.082;8.816;2024-03-06T12:31:07;13.87;;;11.20;;
64887;SDS011;51386;53.082;8.816;2024-03-06T12:33:35;13.57;;;11.40;;
64887;SDS011;51386;53.082;8.816;2024-03-06T12:36:04;11.90;;;10.63;;
64887;SDS011;51386;53.082;8.816;2024-03-06T12:38:37;16.87;;;12.20;;
64887;SDS011;51386;53.082;8.816;2024-03-06T12:41:07;14.40;;;11.10;;
64887;SDS011;51386;53.082;8.816;2024-03-06T12:43:35;14.03;;;11.87;;
64887;SDS011;51386;53.082;8.816;2024-03-06T12:46:04;14.93;;;11.83;;
64887;SDS011;51386;53.082;8.816;2024-03-06T12:48:32;19.40;;;11.83;;
64887;SDS011;51386;53.082;8.816;2024-03-06T12:51:01;16.17;;;11.43;;
64887;SDS011;51386;53.082;8.816;2024-03-06T12:53:32;13.70;;;11.83;;
64887;SDS011;51386;53.082;8.816;2024-03-06T12:56:03;16.13;;;11.80;;
64887;SDS011;51386;53.082;8.816;2024-03-06T12:58:32;13.97;;;11.37;;
64887;SDS011;51386;53.082;8.816;2024-03-06T13:01:02;15.13;;;11.53;;
64887;SDS011;51386;53.082;8.816;2024-03-06T13:03:32;15.50;;;12.33;;
64887;SDS011;51386;53.082;8.816;2024-03-06T13:06:00;15.73;;;12.17;;
64887;SDS011;51386;53.082;8.816;2024-03-06T13:08:32;17.57;;;13.40;;
64887;SDS011;51386;53.082;8.816;2024-03-06T13:11:01;14.23;;;12.30;;
64887;SDS011;51386;53.082;8.816;2024-03-06T13:13:30;13.97;;;12.47;;
64887;SDS011;51386;53.082;8.816;2024-03-06T13:16:01;15.13;;;11.97;;
64887;SDS011;51386;53.082;8.816;2024-03-06T13:18:33;15.03;;;12.93;;
64887;SDS011;51386;53.082;8.816;2024-03-06T13:21:01;27.10;;;21.93;;
64887;SDS011;51386;53.082;8.816;2024-03-06T13:23:30;19.20;;;15.17;;
64887;SDS011;51386;53.082;8.816;2024-03-06T13:25:58;18.90;;;14.33;;
64887;SDS011;51386;53.082;8.816;2024-03-06T13:28:28;17.33;;;13.90;;
64887;SDS011;51386;53.082;8.816;2024-03-06T13:30:56;16.87;;;14.20;;
64887;SDS011;51386;53.082;8.816;2024-03-06T13:33:25;18.10;;;13.87;;
64887;SDS011;51386;53.082;8.816;2024-03-06T13:35:55;18.87;;;13.80;;
64887;SDS011;51386;53.082;8.816;2024-03-06T13:38:24;19.57;;;13.90;;
64887;SDS011;51386;53.082;8.816;2024-03-06T13:40:53;25.03;;;14.13;;
64887;SDS011;51386;53.082;8.816;2024-03-06T13:43:21;16.07;;;14.00;;
64887;SDS011;51386;53.082;8.816;2024-03-06T13:45:51;18.93;;;14.80;;
64887;SDS011;51386;53.082;8.816;2024-03-06T13:48:20;16.80;;;14.40;;
64887;SDS011;51386;53.082;8.816;2024-03-06T13:50:49;22.33;;;13.80;;
64887;SDS011;51386;53.082;8.816;2024-03-06T13:53:18;15.67;;;14.00;;
64887;SDS011;51386;53.082;8.816;2024-03-06T13:55:46;18.50;;;13.60;;
64887;SDS011;51386;53.082;8.816;2024-03-06T13:58:15;17.83;;;13.30;;
64887;SDS011;51386;53.082;8.816;2024-03-06T14:00:43;16.13;;;14.40;;
64887;SDS011;51386;53.082;8.816;2024-03-06T14:03:12;17.33;;;13.73;;
64887;SDS011;51386;53.082;8.816;2024-03-06T14:05:40;17.57;;;14.57;;
64887;SDS011;51386;53.082;8.816;2024-03-06T14:08:08;17.20;;;15.23;;
64887;SDS011;51386;53.082;8.816;2024-03-06T14:10:39;18.93;;;13.60;;
64887;SDS011;51386;53.082;8.816;2024-03-06T14:13:08;20.30;;;14.90;;
64887;SDS011;51386;53.082;8.816;2024-03-06T14:15:36;19.20;;;13.57;;
64887;SDS011;51386;53.082;8.816;2024-03-06T14:18:05;16.20;;;14.07;;
64887;SDS011;51386;53.082;8.816;2024-03-06T14:20:34;18.93;;;13.40;;
64887;SDS011;51386;53.082;8.816;2024-03-06T14:23:02;16.33;;;13.13;;
64887;SDS011;51386;53.082;8.816;2024-03-06T14:25:31;17.40;;;13.07;;
64887;SDS011;51386;53.082;8.816;2024-03-06T14:28:02;16.63;;;12.80;;
64887;SDS011;51386;53.082;8.816;2024-03-06T14:30:31;14.90;;;12.67;;
64887;SDS011;51386;53.082;8.816;2024-03-06T14:32:59;17.70;;;13.60;;
64887;SDS011;51386;53.082;8.816;2024-03-06T14:35:28;18.33;;;13.67;;
64887;SDS011;51386;53.082;8.816;2024-03-06T14:37:56;18.60;;;14.73;;
64887;SDS011;51386;53.082;8.816;2024-03-06T14:40:25;22.10;;;13.87;;
64887;SDS011;51386;53.082;8.816;2024-03-06T14:42:53;20.93;;;14.03;;
64887;SDS011;51386;53.082;8.816;2024-03-06T14:45:22;16.97;;;13.37;;
64887;SDS011;51386;53.082;8.816;2024-03-06T14:47:51;18.17;;;13.80;;
64887;SDS011;51386;53.082;8.816;2024-03-06T14:50:20;19.73;;;12.90;;
64887;SDS011;51386;53.082;8.816;2024-03-06T14:52:58;16.47;;;13.63;;
64887;SDS011;51386;53.082;8.816;2024-03-06T14:55:26;20.60;;;14.40;;